PWSweather.com
Personal Weather Stations
Station Observations
WD4JKH
Forsyth, GA 31029

Forsyth, GA 31029

Lat: 33.033225, Lon: -83.927995

Elevation: 709

Station Type: Davis Vantage VUE

High Low Average
Temperature 83.3°F28.5°C 65.5°F18.6°C 74.3°F23.5°C
Dew Point 67.7°F19.8°C 60.4°F15.8°C 64.0°F17.8°C
Winds 8.4 mph 13.5 kmh Calm Calm 3.0 mph ENE4.8 kmh ENE
Wind Gusts 15.0 mph24.1 kmh -- 7.0 mph11.3 kmh
Humidity 97% 47% 72%
Pressure 30.02 in1016.6 mb 29.92 in1013.2 mb -
Precipitation 0.00 in0.0 mm - -
Hour Temp Dew Point Humidity Winds Wind Gusts Pressure Precip Precip Rate Daily Precip Total
12:02 AM 70.3°F21.3°C 67.5°F19.7°C 91% 8.0 mph NE12.9 kmh NE 14.0 mph22.5 kmh 29.94 in1013.9 mb 0.00 in0.0 mm 0.00 in0.0 mm 0.54 in13.7 mm
12:07 AM 70.2°F21.2°C 67.1°F19.5°C 90% 4.5 mph NE7.2 kmh NE 14.0 mph22.5 kmh 29.94 in1013.9 mb 0.00 in0.0 mm 0.00 in0.0 mm 0.00 in0.0 mm
12:12 AM 70.1°F21.2°C 66.7°F19.3°C 89% 6.6 mph ENE10.6 kmh ENE 14.0 mph22.5 kmh 29.94 in1013.9 mb 0.00 in0.0 mm 0.00 in0.0 mm 0.00 in0.0 mm
12:17 AM 69.9°F21.1°C 65.9°F18.8°C 87% 6.9 mph E11.1 kmh E 14.0 mph22.5 kmh 29.94 in1013.9 mb 0.00 in0.0 mm 0.00 in0.0 mm 0.00 in0.0 mm
12:22 AM 69.7°F20.9°C 65.7°F18.7°C 87% 7.2 mph NE11.6 kmh NE 14.0 mph22.5 kmh 29.94 in1013.9 mb 0.00 in0.0 mm 0.00 in0.0 mm 0.00 in0.0 mm
12:27 AM 69.4°F20.8°C 65.0°F18.3°C 86% 9.0 mph ENE14.5 kmh ENE 15.0 mph24.1 kmh 29.94 in1013.9 mb 0.00 in0.0 mm 0.00 in0.0 mm 0.00 in0.0 mm
12:32 AM 69.1°F20.6°C 64.7°F18.2°C 86% 4.8 mph NE7.7 kmh NE 15.0 mph24.1 kmh 29.94 in1013.9 mb 0.00 in0.0 mm 0.00 in0.0 mm 0.00 in0.0 mm
12:37 AM 68.9°F20.5°C 64.6°F18.1°C 86% 2.6 mph ENE4.2 kmh ENE 15.0 mph24.1 kmh 29.94 in1013.9 mb 0.00 in0.0 mm 0.00 in0.0 mm 0.00 in0.0 mm
12:42 AM 68.8°F20.4°C 64.5°F18.1°C 86% 3.0 mph ENE4.8 kmh ENE 15.0 mph24.1 kmh 29.95 in1014.2 mb 0.00 in0.0 mm 0.00 in0.0 mm 0.00 in0.0 mm
12:47 AM 68.8°F20.4°C 64.4°F18.0°C 86% 4.3 mph NE6.9 kmh NE 13.0 mph20.9 kmh 29.95 in1014.2 mb 0.00 in0.0 mm 0.00 in0.0 mm 0.00 in0.0 mm
12:52 AM 68.7°F20.4°C 64.4°F18.0°C 86% 3.4 mph NE5.5 kmh NE 10.0 mph16.1 kmh 29.95 in1014.2 mb 0.00 in0.0 mm 0.00 in0.0 mm 0.00 in0.0 mm
12:57 AM 68.7°F20.4°C 64.0°F17.8°C 85% 4.5 mph ENE7.2 kmh ENE 10.0 mph16.1 kmh 29.95 in1014.2 mb 0.00 in0.0 mm 0.00 in0.0 mm 0.00 in0.0 mm
01:02 AM 68.8°F20.4°C 64.1°F17.8°C 85% 4.6 mph NE7.4 kmh NE 15.0 mph24.1 kmh 29.94 in1013.9 mb 0.00 in0.0 mm 0.00 in0.0 mm 0.00 in0.0 mm
01:07 AM 68.7°F20.4°C 64.4°F18.0°C 86% 4.4 mph NE7.1 kmh NE 15.0 mph24.1 kmh 29.95 in1014.2 mb 0.00 in0.0 mm 0.00 in0.0 mm 0.00 in0.0 mm
01:12 AM 68.6°F20.3°C 64.3°F17.9°C 86% 2.0 mph ENE3.2 kmh ENE 15.0 mph24.1 kmh 29.95 in1014.2 mb 0.00 in0.0 mm 0.00 in0.0 mm 0.00 in0.0 mm
01:17 AM 68.5°F20.3°C 64.5°F18.1°C 87% 4.3 mph ENE6.9 kmh ENE 15.0 mph24.1 kmh 29.94 in1013.9 mb 0.00 in0.0 mm 0.00 in0.0 mm 0.00 in0.0 mm
01:22 AM 68.4°F20.2°C 64.4°F18.0°C 87% 3.6 mph ENE5.8 kmh ENE 10.0 mph16.1 kmh 29.94 in1013.9 mb 0.00 in0.0 mm 0.00 in0.0 mm 0.00 in0.0 mm
01:27 AM 68.2°F20.1°C 64.5°F18.1°C 88% 2.8 mph ENE4.5 kmh ENE 10.0 mph16.1 kmh 29.95 in1014.2 mb 0.00 in0.0 mm 0.00 in0.0 mm 0.00 in0.0 mm
01:32 AM 68.2°F20.1°C 64.5°F18.1°C 88% 1.3 mph ENE2.1 kmh ENE 10.0 mph16.1 kmh 29.94 in1013.9 mb 0.00 in0.0 mm 0.00 in0.0 mm 0.00 in0.0 mm
01:37 AM 68.1°F20.1°C 64.7°F18.2°C 89% 2.3 mph ENE3.7 kmh ENE 7.0 mph11.3 kmh 29.95 in1014.2 mb 0.00 in0.0 mm 0.00 in0.0 mm 0.00 in0.0 mm
01:42 AM 68.0°F20.0°C 64.6°F18.1°C 89% 1.8 mph NE2.9 kmh NE 6.0 mph9.7 kmh 29.94 in1013.9 mb 0.00 in0.0 mm 0.00 in0.0 mm 0.00 in0.0 mm
01:47 AM 67.8°F19.9°C 64.7°F18.2°C 90% 2.4 mph NE3.9 kmh NE 6.0 mph9.7 kmh 29.94 in1013.9 mb 0.00 in0.0 mm 0.00 in0.0 mm 0.00 in0.0 mm
01:52 AM 67.7°F19.8°C 64.7°F18.2°C 90% 2.0 mph ENE3.2 kmh ENE 6.0 mph9.7 kmh 29.94 in1013.9 mb 0.00 in0.0 mm 0.00 in0.0 mm 0.00 in0.0 mm
01:57 AM 67.6°F19.8°C 64.9°F18.3°C 91% 1.3 mph NE2.1 kmh NE 5.0 mph8.0 kmh 29.94 in1013.9 mb 0.00 in0.0 mm 0.00 in0.0 mm 0.00 in0.0 mm
02:02 AM 67.5°F19.7°C 64.8°F18.2°C 91% 2.1 mph NE3.4 kmh NE 5.0 mph8.0 kmh 29.94 in1013.9 mb 0.00 in0.0 mm 0.00 in0.0 mm 0.00 in0.0 mm
02:07 AM 67.4°F19.7°C 65.0°F18.3°C 92% 2.7 mph NE4.3 kmh NE 6.0 mph9.7 kmh 29.94 in1013.9 mb 0.00 in0.0 mm 0.00 in0.0 mm 0.00 in0.0 mm
02:12 AM 67.3°F19.6°C 64.9°F18.3°C 92% 2.3 mph NE3.7 kmh NE 6.0 mph9.7 kmh 29.94 in1013.9 mb 0.00 in0.0 mm 0.00 in0.0 mm 0.00 in0.0 mm
02:17 AM 67.2°F19.6°C 64.8°F18.2°C 92% 1.7 mph NNE2.7 kmh NNE 6.0 mph9.7 kmh 29.94 in1013.9 mb 0.00 in0.0 mm 0.00 in0.0 mm 0.00 in0.0 mm
02:22 AM 67.1°F19.5°C 65.0°F18.3°C 93% 1.2 mph NE1.9 kmh NE 6.0 mph9.7 kmh 29.94 in1013.9 mb 0.00 in0.0 mm 0.00 in0.0 mm 0.00 in0.0 mm
02:27 AM 67.1°F19.5°C 65.0°F18.3°C 93% 1.6 mph NE2.6 kmh NE 5.0 mph8.0 kmh 29.94 in1013.9 mb 0.00 in0.0 mm 0.00 in0.0 mm 0.00 in0.0 mm
02:32 AM 66.9°F19.4°C 65.1°F18.4°C 94% 1.7 mph NE2.7 kmh NE 4.0 mph6.4 kmh 29.94 in1013.9 mb 0.00 in0.0 mm 0.00 in0.0 mm 0.00 in0.0 mm
02:37 AM 66.8°F19.3°C 65.0°F18.3°C 94% 2.7 mph NE4.3 kmh NE 4.0 mph6.4 kmh 29.94 in1013.9 mb 0.00 in0.0 mm 0.00 in0.0 mm 0.00 in0.0 mm
02:42 AM 66.8°F19.3°C 65.0°F18.3°C 94% 2.7 mph NE4.3 kmh NE 6.0 mph9.7 kmh 29.94 in1013.9 mb 0.00 in0.0 mm 0.00 in0.0 mm 0.00 in0.0 mm
02:46 AM 66.8°F19.3°C 65.0°F18.3°C 94% 2.3 mph NE3.7 kmh NE 6.0 mph9.7 kmh 29.94 in1013.9 mb 0.00 in0.0 mm 0.00 in0.0 mm 0.00 in0.0 mm
02:51 AM 66.8°F19.3°C 65.3°F18.5°C 95% 2.4 mph NE3.9 kmh NE 6.0 mph9.7 kmh 29.94 in1013.9 mb 0.00 in0.0 mm 0.00 in0.0 mm 0.00 in0.0 mm
02:56 AM 66.7°F19.3°C 65.2°F18.4°C 95% 2.1 mph NE3.4 kmh NE 6.0 mph9.7 kmh 29.94 in1013.9 mb 0.00 in0.0 mm 0.00 in0.0 mm 0.00 in0.0 mm
03:01 AM 66.7°F19.3°C 65.2°F18.4°C 95% 1.7 mph NE2.7 kmh NE 5.0 mph8.0 kmh 29.93 in1013.5 mb 0.00 in0.0 mm 0.00 in0.0 mm 0.00 in0.0 mm
03:06 AM 66.7°F19.3°C 65.2°F18.4°C 95% 1.9 mph NE3.1 kmh NE 5.0 mph8.0 kmh 29.93 in1013.5 mb 0.00 in0.0 mm 0.00 in0.0 mm 0.00 in0.0 mm
03:11 AM 66.7°F19.3°C 65.2°F18.4°C 95% 2.4 mph NE3.9 kmh NE 6.0 mph9.7 kmh 29.93 in1013.5 mb 0.00 in0.0 mm 0.00 in0.0 mm 0.00 in0.0 mm
03:16 AM 66.8°F19.3°C 65.3°F18.5°C 95% 2.6 mph NE4.2 kmh NE 6.0 mph9.7 kmh 29.93 in1013.5 mb 0.00 in0.0 mm 0.00 in0.0 mm 0.00 in0.0 mm
03:21 AM 66.9°F19.4°C 65.7°F18.7°C 96% 3.0 mph NE4.8 kmh NE 6.0 mph9.7 kmh 29.93 in1013.5 mb 0.00 in0.0 mm 0.00 in0.0 mm 0.00 in0.0 mm
03:26 AM 66.9°F19.4°C 65.7°F18.7°C 96% 3.5 mph NE5.6 kmh NE 6.0 mph9.7 kmh 29.93 in1013.5 mb 0.00 in0.0 mm 0.00 in0.0 mm 0.00 in0.0 mm
03:31 AM 67.0°F19.4°C 65.8°F18.8°C 96% 2.4 mph NE3.9 kmh NE 7.0 mph11.3 kmh 29.92 in1013.2 mb 0.00 in0.0 mm 0.00 in0.0 mm 0.00 in0.0 mm
03:36 AM 66.9°F19.4°C 65.7°F18.7°C 96% 3.4 mph NE5.5 kmh NE 7.0 mph11.3 kmh 29.92 in1013.2 mb 0.00 in0.0 mm 0.00 in0.0 mm 0.00 in0.0 mm
03:41 AM 66.8°F19.3°C 65.6°F18.7°C 96% 1.6 mph NNE2.6 kmh NNE 7.0 mph11.3 kmh 29.93 in1013.5 mb 0.00 in0.0 mm 0.00 in0.0 mm 0.00 in0.0 mm
03:46 AM 66.7°F19.3°C 65.5°F18.6°C 96% 1.0 mph NNW1.6 kmh NNW 7.0 mph11.3 kmh 29.93 in1013.5 mb 0.00 in0.0 mm 0.00 in0.0 mm 0.00 in0.0 mm
03:51 AM 66.7°F19.3°C 65.5°F18.6°C 96% 1.3 mph NE2.1 kmh NE 7.0 mph11.3 kmh 29.93 in1013.5 mb 0.00 in0.0 mm 0.00 in0.0 mm 0.00 in0.0 mm
03:56 AM 66.7°F19.3°C 65.5°F18.6°C 96% Calm Calm 4.0 mph6.4 kmh 29.93 in1013.5 mb 0.00 in0.0 mm 0.00 in0.0 mm 0.00 in0.0 mm
04:01 AM 66.7°F19.3°C 65.8°F18.8°C 97% 2.0 mph NE3.2 kmh NE 4.0 mph6.4 kmh 29.93 in1013.5 mb 0.00 in0.0 mm 0.00 in0.0 mm 0.00 in0.0 mm
04:06 AM 66.8°F19.3°C 65.9°F18.8°C 97% 1.6 mph NE2.6 kmh NE 4.0 mph6.4 kmh 29.93 in1013.5 mb 0.00 in0.0 mm 0.00 in0.0 mm 0.00 in0.0 mm
04:11 AM 66.8°F19.3°C 65.6°F18.7°C 96% 1.5 mph NE2.4 kmh NE 4.0 mph6.4 kmh 29.93 in1013.5 mb 0.00 in0.0 mm 0.00 in0.0 mm 0.00 in0.0 mm
04:16 AM 66.8°F19.3°C 65.6°F18.7°C 96% 1.8 mph NE2.9 kmh NE 4.0 mph6.4 kmh 29.93 in1013.5 mb 0.00 in0.0 mm 0.00 in0.0 mm 0.00 in0.0 mm
04:21 AM 66.7°F19.3°C 65.5°F18.6°C 96% 1.8 mph NE2.9 kmh NE 5.0 mph8.0 kmh 29.93 in1013.5 mb 0.00 in0.0 mm 0.00 in0.0 mm 0.00 in0.0 mm
04:26 AM 66.7°F19.3°C 65.5°F18.6°C 96% 2.2 mph NE3.5 kmh NE 5.0 mph8.0 kmh 29.93 in1013.5 mb 0.00 in0.0 mm 0.00 in0.0 mm 0.00 in0.0 mm
04:31 AM 66.6°F19.2°C 65.4°F18.6°C 96% 2.3 mph NE3.7 kmh NE 6.0 mph9.7 kmh 29.93 in1013.5 mb 0.00 in0.0 mm 0.00 in0.0 mm 0.00 in0.0 mm
04:36 AM 66.6°F19.2°C 65.4°F18.6°C 96% 1.6 mph NNE2.6 kmh NNE 6.0 mph9.7 kmh 29.93 in1013.5 mb 0.00 in0.0 mm 0.00 in0.0 mm 0.00 in0.0 mm
04:41 AM 66.5°F19.2°C 65.3°F18.5°C 96% 1.0 mph NE1.6 kmh NE 6.0 mph9.7 kmh 29.93 in1013.5 mb 0.00 in0.0 mm 0.00 in0.0 mm 0.00 in0.0 mm
04:46 AM 66.4°F19.1°C 65.2°F18.4°C 96% 2.4 mph NNE3.9 kmh NNE 6.0 mph9.7 kmh 29.93 in1013.5 mb 0.00 in0.0 mm 0.00 in0.0 mm 0.00 in0.0 mm
04:51 AM 66.4°F19.1°C 65.2°F18.4°C 96% 2.1 mph NE3.4 kmh NE 6.0 mph9.7 kmh 29.93 in1013.5 mb 0.00 in0.0 mm 0.00 in0.0 mm 0.00 in0.0 mm
04:56 AM 66.3°F19.1°C 65.1°F18.4°C 96% 1.7 mph NNE2.7 kmh NNE 6.0 mph9.7 kmh 29.93 in1013.5 mb 0.00 in0.0 mm 0.00 in0.0 mm 0.00 in0.0 mm
05:01 AM 66.3°F19.1°C 65.1°F18.4°C 96% 1.9 mph NE3.1 kmh NE 6.0 mph9.7 kmh 29.93 in1013.5 mb 0.00 in0.0 mm 0.00 in0.0 mm 0.00 in0.0 mm
05:06 AM 66.3°F19.1°C 65.1°F18.4°C 96% 1.8 mph NNE2.9 kmh NNE 5.0 mph8.0 kmh 29.93 in1013.5 mb 0.00 in0.0 mm 0.00 in0.0 mm 0.00 in0.0 mm
05:11 AM 66.2°F19.0°C 65.0°F18.3°C 96% 1.7 mph NE2.7 kmh NE 5.0 mph8.0 kmh 29.94 in1013.9 mb 0.00 in0.0 mm 0.00 in0.0 mm 0.00 in0.0 mm
05:16 AM 66.2°F19.0°C 65.0°F18.3°C 96% 2.4 mph NE3.9 kmh NE 7.0 mph11.3 kmh 29.94 in1013.9 mb 0.00 in0.0 mm 0.00 in0.0 mm 0.00 in0.0 mm
05:21 AM 66.1°F18.9°C 64.9°F18.3°C 96% 1.8 mph NE2.9 kmh NE 7.0 mph11.3 kmh 29.94 in1013.9 mb 0.00 in0.0 mm 0.00 in0.0 mm 0.00 in0.0 mm
05:27 AM 66.0°F18.9°C 64.8°F18.2°C 96% 2.3 mph NE3.7 kmh NE 7.0 mph11.3 kmh 29.94 in1013.9 mb 0.00 in0.0 mm 0.00 in0.0 mm 0.00 in0.0 mm
05:32 AM 65.9°F18.8°C 64.7°F18.2°C 96% 2.8 mph NNE4.5 kmh NNE 8.0 mph12.9 kmh 29.94 in1013.9 mb 0.00 in0.0 mm 0.00 in0.0 mm 0.00 in0.0 mm
05:37 AM 65.9°F18.8°C 64.7°F18.2°C 96% 1.8 mph NNE2.9 kmh NNE 8.0 mph12.9 kmh 29.94 in1013.9 mb 0.00 in0.0 mm 0.00 in0.0 mm 0.00 in0.0 mm
05:42 AM 65.8°F18.8°C 64.9°F18.3°C 97% 2.2 mph NNE3.5 kmh NNE 8.0 mph12.9 kmh 29.95 in1014.2 mb 0.00 in0.0 mm 0.00 in0.0 mm 0.00 in0.0 mm
05:47 AM 65.8°F18.8°C 64.6°F18.1°C 96% 1.4 mph NE2.3 kmh NE 6.0 mph9.7 kmh 29.95 in1014.2 mb 0.00 in0.0 mm 0.00 in0.0 mm 0.00 in0.0 mm
05:52 AM 65.6°F18.7°C 64.4°F18.0°C 96% 2.3 mph NNE3.7 kmh NNE 6.0 mph9.7 kmh 29.95 in1014.2 mb 0.00 in0.0 mm 0.00 in0.0 mm 0.00 in0.0 mm
05:57 AM 65.6°F18.7°C 64.4°F18.0°C 96% 1.5 mph NE2.4 kmh NE 5.0 mph8.0 kmh 29.95 in1014.2 mb 0.00 in0.0 mm 0.00 in0.0 mm 0.00 in0.0 mm
06:02 AM 65.6°F18.7°C 64.7°F18.2°C 97% 1.4 mph NE2.3 kmh NE 5.0 mph8.0 kmh 29.95 in1014.2 mb 0.00 in0.0 mm 0.00 in0.0 mm 0.00 in0.0 mm
06:07 AM 65.6°F18.7°C 64.4°F18.0°C 96% 2.0 mph NNE3.2 kmh NNE 5.0 mph8.0 kmh 29.95 in1014.2 mb 0.00 in0.0 mm 0.00 in0.0 mm 0.00 in0.0 mm
06:12 AM 65.5°F18.6°C 64.3°F17.9°C 96% 1.5 mph NNE2.4 kmh NNE 4.0 mph6.4 kmh 29.96 in1014.6 mb 0.00 in0.0 mm 0.00 in0.0 mm 0.00 in0.0 mm
06:17 AM 65.5°F18.6°C 64.6°F18.1°C 97% 1.1 mph N1.8 kmh N 4.0 mph6.4 kmh 29.96 in1014.6 mb 0.00 in0.0 mm 0.00 in0.0 mm 0.00 in0.0 mm
06:22 AM 65.6°F18.7°C 64.7°F18.2°C 97% 1.4 mph NNE2.3 kmh NNE 4.0 mph6.4 kmh 29.96 in1014.6 mb 0.00 in0.0 mm 0.00 in0.0 mm 0.00 in0.0 mm
06:27 AM 65.6°F18.7°C 64.7°F18.2°C 97% 3.3 mph NE5.3 kmh NE 5.0 mph8.0 kmh 29.96 in1014.6 mb 0.00 in0.0 mm 0.00 in0.0 mm 0.00 in0.0 mm
06:32 AM 65.6°F18.7°C 64.4°F18.0°C 96% 1.8 mph NE2.9 kmh NE 5.0 mph8.0 kmh 29.96 in1014.6 mb 0.00 in0.0 mm 0.00 in0.0 mm 0.00 in0.0 mm
06:37 AM 65.7°F18.7°C 64.5°F18.1°C 96% 1.6 mph NNE2.6 kmh NNE 5.0 mph8.0 kmh 29.97 in1014.9 mb 0.00 in0.0 mm 0.00 in0.0 mm 0.00 in0.0 mm
06:42 AM 65.7°F18.7°C 64.5°F18.1°C 96% 1.7 mph NNE2.7 kmh NNE 5.0 mph8.0 kmh 29.97 in1014.9 mb 0.00 in0.0 mm 0.00 in0.0 mm 0.00 in0.0 mm
06:47 AM 65.7°F18.7°C 64.5°F18.1°C 96% 2.1 mph NE3.4 kmh NE 7.0 mph11.3 kmh 29.97 in1014.9 mb 0.00 in0.0 mm 0.00 in0.0 mm 0.00 in0.0 mm
06:52 AM 65.8°F18.8°C 64.6°F18.1°C 96% 1.5 mph NE2.4 kmh NE 7.0 mph11.3 kmh 29.97 in1014.9 mb 0.00 in0.0 mm 0.00 in0.0 mm 0.00 in0.0 mm
06:57 AM 65.8°F18.8°C 64.6°F18.1°C 96% 3.0 mph NE4.8 kmh NE 8.0 mph12.9 kmh 29.97 in1014.9 mb 0.00 in0.0 mm 0.00 in0.0 mm 0.00 in0.0 mm
07:02 AM 65.9°F18.8°C 64.7°F18.2°C 96% 2.0 mph NNE3.2 kmh NNE 8.0 mph12.9 kmh 29.97 in1014.9 mb 0.00 in0.0 mm 0.00 in0.0 mm 0.00 in0.0 mm
07:07 AM 65.9°F18.8°C 64.7°F18.2°C 96% 1.7 mph NE2.7 kmh NE 8.0 mph12.9 kmh 29.98 in1015.2 mb 0.00 in0.0 mm 0.00 in0.0 mm 0.00 in0.0 mm
07:12 AM 65.9°F18.8°C 64.4°F18.0°C 95% 2.2 mph NE3.5 kmh NE 8.0 mph12.9 kmh 29.98 in1015.2 mb 0.00 in0.0 mm 0.00 in0.0 mm 0.00 in0.0 mm
07:17 AM 65.9°F18.8°C 64.4°F18.0°C 95% 2.4 mph NE3.9 kmh NE 7.0 mph11.3 kmh 29.98 in1015.2 mb 0.00 in0.0 mm 0.00 in0.0 mm 0.00 in0.0 mm
07:22 AM 65.9°F18.8°C 64.4°F18.0°C 95% 2.6 mph NE4.2 kmh NE 7.0 mph11.3 kmh 29.98 in1015.2 mb 0.00 in0.0 mm 0.00 in0.0 mm 0.00 in0.0 mm
07:27 AM 65.9°F18.8°C 64.4°F18.0°C 95% 2.8 mph NE4.5 kmh NE 7.0 mph11.3 kmh 29.98 in1015.2 mb 0.00 in0.0 mm 0.00 in0.0 mm 0.00 in0.0 mm
07:32 AM 66.0°F18.9°C 64.5°F18.1°C 95% 1.6 mph NE2.6 kmh NE 7.0 mph11.3 kmh 29.98 in1015.2 mb 0.00 in0.0 mm 0.00 in0.0 mm 0.00 in0.0 mm
07:37 AM 66.4°F19.1°C 64.9°F18.3°C 95% 1.8 mph NE2.9 kmh NE 7.0 mph11.3 kmh 29.98 in1015.2 mb 0.00 in0.0 mm 0.00 in0.0 mm 0.00 in0.0 mm
07:42 AM 66.6°F19.2°C 64.8°F18.2°C 94% 3.0 mph NE4.8 kmh NE 6.0 mph9.7 kmh 29.99 in1015.6 mb 0.00 in0.0 mm 0.00 in0.0 mm 0.00 in0.0 mm
07:46 AM 66.6°F19.2°C 64.8°F18.2°C 94% 2.9 mph NE4.7 kmh NE 6.0 mph9.7 kmh 29.99 in1015.6 mb 0.00 in0.0 mm 0.00 in0.0 mm 0.00 in0.0 mm
07:51 AM 66.6°F19.2°C 64.8°F18.2°C 94% 1.6 mph NE2.6 kmh NE 7.0 mph11.3 kmh 29.99 in1015.6 mb 0.00 in0.0 mm 0.00 in0.0 mm 0.00 in0.0 mm
07:56 AM 66.7°F19.3°C 64.9°F18.3°C 94% 3.8 mph NE6.1 kmh NE 7.0 mph11.3 kmh 29.99 in1015.6 mb 0.00 in0.0 mm 0.00 in0.0 mm 0.00 in0.0 mm
08:01 AM 66.9°F19.4°C 65.1°F18.4°C 94% 1.0 mph N1.6 kmh N 7.0 mph11.3 kmh 29.99 in1015.6 mb 0.00 in0.0 mm 0.00 in0.0 mm 0.00 in0.0 mm
08:06 AM 66.9°F19.4°C 64.8°F18.2°C 93% 4.9 mph NE7.9 kmh NE 9.0 mph14.5 kmh 29.99 in1015.6 mb 0.00 in0.0 mm 0.00 in0.0 mm 0.00 in0.0 mm
08:11 AM 67.1°F19.5°C 65.0°F18.3°C 93% 3.5 mph NE5.6 kmh NE 9.0 mph14.5 kmh 29.99 in1015.6 mb 0.00 in0.0 mm 0.00 in0.0 mm 0.00 in0.0 mm
08:16 AM 67.3°F19.6°C 64.9°F18.3°C 92% 5.1 mph NE8.2 kmh NE 9.0 mph14.5 kmh 29.99 in1015.6 mb 0.00 in0.0 mm 0.00 in0.0 mm 0.00 in0.0 mm
08:21 AM 67.6°F19.8°C 65.2°F18.4°C 92% 5.3 mph NE8.5 kmh NE 10.0 mph16.1 kmh 29.99 in1015.6 mb 0.00 in0.0 mm 0.00 in0.0 mm 0.00 in0.0 mm
08:26 AM 68.0°F20.0°C 65.2°F18.4°C 91% 6.3 mph NE10.1 kmh NE 11.0 mph17.7 kmh 30.00 in1015.9 mb 0.00 in0.0 mm 0.00 in0.0 mm 0.00 in0.0 mm
08:31 AM 68.3°F20.2°C 65.2°F18.4°C 90% 6.2 mph NE10.0 kmh NE 11.0 mph17.7 kmh 30.00 in1015.9 mb 0.00 in0.0 mm 0.00 in0.0 mm 0.00 in0.0 mm
08:36 AM 68.6°F20.3°C 65.8°F18.8°C 91% 4.0 mph NE6.4 kmh NE 11.0 mph17.7 kmh 30.00 in1015.9 mb 0.00 in0.0 mm 0.00 in0.0 mm 0.00 in0.0 mm
08:41 AM 68.9°F20.5°C 65.8°F18.8°C 90% 3.3 mph NE5.3 kmh NE 11.0 mph17.7 kmh 30.00 in1015.9 mb 0.00 in0.0 mm 0.00 in0.0 mm 0.00 in0.0 mm
08:46 AM 68.7°F20.4°C 65.3°F18.5°C 89% 3.9 mph NE6.3 kmh NE 9.0 mph14.5 kmh 30.01 in1016.3 mb 0.00 in0.0 mm 0.00 in0.0 mm 0.00 in0.0 mm
08:51 AM 68.5°F20.3°C 65.1°F18.4°C 89% 3.4 mph NE5.5 kmh NE 9.0 mph14.5 kmh 30.01 in1016.3 mb 0.00 in0.0 mm 0.00 in0.0 mm 0.00 in0.0 mm
08:56 AM 68.6°F20.3°C 65.2°F18.4°C 89% 5.6 mph NE9.0 kmh NE 9.0 mph14.5 kmh 30.01 in1016.3 mb 0.00 in0.0 mm 0.00 in0.0 mm 0.00 in0.0 mm
09:01 AM 69.0°F20.6°C 65.3°F18.5°C 88% 6.5 mph NE10.5 kmh NE 9.0 mph14.5 kmh 30.01 in1016.3 mb 0.00 in0.0 mm 0.00 in0.0 mm 0.00 in0.0 mm
09:06 AM 69.2°F20.7°C 65.5°F18.6°C 88% 5.7 mph NE9.2 kmh NE 9.0 mph14.5 kmh 30.01 in1016.3 mb 0.00 in0.0 mm 0.00 in0.0 mm 0.00 in0.0 mm
09:11 AM 69.6°F20.9°C 65.6°F18.7°C 87% 4.8 mph NE7.7 kmh NE 9.0 mph14.5 kmh 30.01 in1016.3 mb 0.00 in0.0 mm 0.00 in0.0 mm 0.00 in0.0 mm
09:16 AM 70.3°F21.3°C 66.3°F19.1°C 87% 3.0 mph NE4.8 kmh NE 9.0 mph14.5 kmh 30.01 in1016.3 mb 0.00 in0.0 mm 0.00 in0.0 mm 0.00 in0.0 mm
09:21 AM 70.6°F21.4°C 65.6°F18.7°C 84% 6.6 mph NE10.6 kmh NE 11.0 mph17.7 kmh 30.01 in1016.3 mb 0.00 in0.0 mm 0.00 in0.0 mm 0.00 in0.0 mm
09:26 AM 70.5°F21.4°C 65.1°F18.4°C 83% 6.3 mph NNE10.1 kmh NNE 11.0 mph17.7 kmh 30.01 in1016.3 mb 0.00 in0.0 mm 0.00 in0.0 mm 0.00 in0.0 mm
09:31 AM 70.8°F21.6°C 65.8°F18.8°C 84% 5.7 mph NE9.2 kmh NE 11.0 mph17.7 kmh 30.02 in1016.6 mb 0.00 in0.0 mm 0.00 in0.0 mm 0.00 in0.0 mm
09:36 AM 71.1°F21.7°C 66.4°F19.1°C 85% 3.5 mph NE5.6 kmh NE 11.0 mph17.7 kmh 30.02 in1016.6 mb 0.00 in0.0 mm 0.00 in0.0 mm 0.00 in0.0 mm
09:41 AM 71.8°F22.1°C 66.7°F19.3°C 84% 2.3 mph NNE3.7 kmh NNE 11.0 mph17.7 kmh 30.02 in1016.6 mb 0.00 in0.0 mm 0.00 in0.0 mm 0.00 in0.0 mm
09:46 AM 72.1°F22.3°C 67.0°F19.4°C 84% 2.6 mph NNE4.2 kmh NNE 10.0 mph16.1 kmh 30.02 in1016.6 mb 0.00 in0.0 mm 0.00 in0.0 mm 0.00 in0.0 mm
09:51 AM 72.5°F22.5°C 67.4°F19.7°C 84% 1.7 mph NE2.7 kmh NE 10.0 mph16.1 kmh 30.02 in1016.6 mb 0.00 in0.0 mm 0.00 in0.0 mm 0.00 in0.0 mm
09:56 AM 72.2°F22.3°C 67.1°F19.5°C 84% 2.4 mph NE3.9 kmh NE 11.0 mph17.7 kmh 30.02 in1016.6 mb 0.00 in0.0 mm 0.00 in0.0 mm 0.00 in0.0 mm
10:01 AM 72.6°F22.6°C 67.5°F19.7°C 84% 1.9 mph NNE3.1 kmh NNE 11.0 mph17.7 kmh 30.02 in1016.6 mb 0.00 in0.0 mm 0.00 in0.0 mm 0.00 in0.0 mm
10:06 AM 73.0°F22.8°C 67.6°F19.8°C 83% 4.9 mph NE7.9 kmh NE 11.0 mph17.7 kmh 30.02 in1016.6 mb 0.00 in0.0 mm 0.00 in0.0 mm 0.00 in0.0 mm
10:11 AM 73.3°F22.9°C 67.5°F19.7°C 82% 4.7 mph NE7.6 kmh NE 11.0 mph17.7 kmh 30.02 in1016.6 mb 0.00 in0.0 mm 0.00 in0.0 mm 0.00 in0.0 mm
10:16 AM 73.8°F23.2°C 67.7°F19.8°C 81% 4.5 mph NE7.2 kmh NE 9.0 mph14.5 kmh 30.02 in1016.6 mb 0.00 in0.0 mm 0.00 in0.0 mm 0.00 in0.0 mm
10:21 AM 74.0°F23.3°C 66.8°F19.3°C 78% 4.9 mph NE7.9 kmh NE 14.0 mph22.5 kmh 30.02 in1016.6 mb 0.00 in0.0 mm 0.00 in0.0 mm 0.00 in0.0 mm
10:26 AM 74.1°F23.4°C 66.9°F19.4°C 78% 4.5 mph NE7.2 kmh NE 14.0 mph22.5 kmh 30.02 in1016.6 mb 0.00 in0.0 mm 0.00 in0.0 mm 0.00 in0.0 mm
10:31 AM 74.4°F23.6°C 66.5°F19.2°C 76% 3.9 mph NNE6.3 kmh NNE 14.0 mph22.5 kmh 30.02 in1016.6 mb 0.00 in0.0 mm 0.00 in0.0 mm 0.00 in0.0 mm
10:36 AM 74.2°F23.4°C 66.1°F18.9°C 76% 6.9 mph NE11.1 kmh NE 14.0 mph22.5 kmh 30.02 in1016.6 mb 0.00 in0.0 mm 0.00 in0.0 mm 0.00 in0.0 mm
10:41 AM 74.4°F23.6°C 66.7°F19.3°C 77% 4.9 mph NE7.9 kmh NE 14.0 mph22.5 kmh 30.02 in1016.6 mb 0.00 in0.0 mm 0.00 in0.0 mm 0.00 in0.0 mm
10:46 AM 74.9°F23.8°C 66.2°F19.0°C 74% 6.9 mph NE11.1 kmh NE 14.0 mph22.5 kmh 30.02 in1016.6 mb 0.00 in0.0 mm 0.00 in0.0 mm 0.00 in0.0 mm
10:51 AM 74.8°F23.8°C 66.1°F18.9°C 74% 4.8 mph NE7.7 kmh NE 14.0 mph22.5 kmh 30.02 in1016.6 mb 0.00 in0.0 mm 0.00 in0.0 mm 0.00 in0.0 mm
10:56 AM 74.9°F23.8°C 66.2°F19.0°C 74% 4.7 mph NE7.6 kmh NE 14.0 mph22.5 kmh 30.02 in1016.6 mb 0.00 in0.0 mm 0.00 in0.0 mm 0.00 in0.0 mm
11:01 AM 75.0°F23.9°C 65.9°F18.8°C 73% 5.4 mph NE8.7 kmh NE 14.0 mph22.5 kmh 30.02 in1016.6 mb 0.00 in0.0 mm 0.00 in0.0 mm 0.00 in0.0 mm
11:06 AM 75.0°F23.9°C 65.5°F18.6°C 72% 5.7 mph NE9.2 kmh NE 14.0 mph22.5 kmh 30.02 in1016.6 mb 0.00 in0.0 mm 0.00 in0.0 mm 0.00 in0.0 mm
11:11 AM 75.2°F24.0°C 64.5°F18.1°C 69% 7.6 mph NE12.2 kmh NE 14.0 mph22.5 kmh 30.02 in1016.6 mb 0.00 in0.0 mm 0.00 in0.0 mm 0.00 in0.0 mm
11:16 AM 75.7°F24.3°C 65.8°F18.8°C 71% 3.9 mph ENE6.3 kmh ENE 14.0 mph22.5 kmh 30.02 in1016.6 mb 0.00 in0.0 mm 0.00 in0.0 mm 0.00 in0.0 mm
11:21 AM 75.9°F24.4°C 64.6°F18.1°C 68% 5.9 mph NE9.5 kmh NE 14.0 mph22.5 kmh 30.02 in1016.6 mb 0.00 in0.0 mm 0.00 in0.0 mm 0.00 in0.0 mm
11:26 AM 75.9°F24.4°C 65.2°F18.4°C 69% 8.4 mph NE13.5 kmh NE 14.0 mph22.5 kmh 30.02 in1016.6 mb 0.00 in0.0 mm 0.00 in0.0 mm 0.00 in0.0 mm
11:31 AM 76.3°F24.6°C 65.2°F18.4°C 68% 4.8 mph NE7.7 kmh NE 14.0 mph22.5 kmh 30.02 in1016.6 mb 0.00 in0.0 mm 0.00 in0.0 mm 0.00 in0.0 mm
11:36 AM 76.7°F24.8°C 65.1°F18.4°C 67% 6.5 mph ENE10.5 kmh ENE 14.0 mph22.5 kmh 30.02 in1016.6 mb 0.00 in0.0 mm 0.00 in0.0 mm 0.00 in0.0 mm
11:41 AM 76.7°F24.8°C 66.0°F18.9°C 69% 2.7 mph NE4.3 kmh NE 12.0 mph19.3 kmh 30.01 in1016.3 mb 0.00 in0.0 mm 0.00 in0.0 mm 0.00 in0.0 mm
11:46 AM 76.6°F24.8°C 65.5°F18.6°C 68% 6.3 mph NE10.1 kmh NE 12.0 mph19.3 kmh 30.01 in1016.3 mb 0.00 in0.0 mm 0.00 in0.0 mm 0.00 in0.0 mm
11:51 AM 76.8°F24.9°C 65.2°F18.4°C 67% 5.2 mph ENE8.4 kmh ENE 12.0 mph19.3 kmh 30.01 in1016.3 mb 0.00 in0.0 mm 0.00 in0.0 mm 0.00 in0.0 mm
11:56 AM 77.1°F25.1°C 65.5°F18.6°C 67% 4.1 mph NE6.6 kmh NE 12.0 mph19.3 kmh 30.01 in1016.3 mb 0.00 in0.0 mm 0.00 in0.0 mm 0.00 in0.0 mm
12:01 PM 77.3°F25.2°C 65.3°F18.5°C 66% 4.8 mph ENE7.7 kmh ENE 14.0 mph22.5 kmh 30.01 in1016.3 mb 0.00 in0.0 mm 0.00 in0.0 mm 0.00 in0.0 mm
12:06 PM 77.6°F25.3°C 66.0°F18.9°C 67% 1.9 mph ENE3.1 kmh ENE 14.0 mph22.5 kmh 30.01 in1016.3 mb 0.00 in0.0 mm 0.00 in0.0 mm 0.00 in0.0 mm
12:11 PM 77.8°F25.4°C 65.3°F18.5°C 65% 3.1 mph E5.0 kmh E 14.0 mph22.5 kmh 30.01 in1016.3 mb 0.00 in0.0 mm 0.00 in0.0 mm 0.00 in0.0 mm
12:16 PM 78.1°F25.6°C 65.4°F18.6°C 65% 5.5 mph NE8.9 kmh NE 13.0 mph20.9 kmh 30.01 in1016.3 mb 0.00 in0.0 mm 0.00 in0.0 mm 0.00 in0.0 mm
12:21 PM 78.6°F25.9°C 66.1°F18.9°C 65% 1.9 mph NE3.1 kmh NE 10.0 mph16.1 kmh 30.01 in1016.3 mb 0.00 in0.0 mm 0.00 in0.0 mm 0.00 in0.0 mm
12:26 PM 78.8°F26.0°C 65.1°F18.4°C 63% 7.9 mph NE12.7 kmh NE 13.0 mph20.9 kmh 30.01 in1016.3 mb 0.00 in0.0 mm 0.00 in0.0 mm 0.00 in0.0 mm
12:31 PM 78.5°F25.8°C 65.3°F18.5°C 64% 3.6 mph NE5.8 kmh NE 13.0 mph20.9 kmh 30.01 in1016.3 mb 0.00 in0.0 mm 0.00 in0.0 mm 0.00 in0.0 mm
12:36 PM 78.2°F25.7°C 64.3°F17.9°C 62% 3.6 mph NE5.8 kmh NE 13.0 mph20.9 kmh 30.01 in1016.3 mb 0.00 in0.0 mm 0.00 in0.0 mm 0.00 in0.0 mm
12:41 PM 78.6°F25.9°C 65.2°F18.4°C 63% 4.2 mph NE6.8 kmh NE 13.0 mph20.9 kmh 30.01 in1016.3 mb 0.00 in0.0 mm 0.00 in0.0 mm 0.00 in0.0 mm
12:45 PM 78.9°F26.1°C 65.0°F18.3°C 62% 4.8 mph NE7.7 kmh NE 13.0 mph20.9 kmh 30.01 in1016.3 mb 0.00 in0.0 mm 0.00 in0.0 mm 0.00 in0.0 mm
12:50 PM 78.9°F26.1°C 65.0°F18.3°C 62% 4.0 mph ENE6.4 kmh ENE 11.0 mph17.7 kmh 30.01 in1016.3 mb 0.00 in0.0 mm 0.00 in0.0 mm 0.00 in0.0 mm
12:55 PM 79.0°F26.1°C 64.2°F17.9°C 60% 6.2 mph NE10.0 kmh NE 11.0 mph17.7 kmh 30.01 in1016.3 mb 0.00 in0.0 mm 0.00 in0.0 mm 0.00 in0.0 mm
01:00 PM 79.2°F26.2°C 64.3°F17.9°C 60% 4.9 mph NE7.9 kmh NE 11.0 mph17.7 kmh 30.01 in1016.3 mb 0.00 in0.0 mm 0.00 in0.0 mm 0.00 in0.0 mm
01:05 PM 79.0°F26.1°C 64.4°F18.0°C 61% 5.5 mph NE8.9 kmh NE 10.0 mph16.1 kmh 30.00 in1015.9 mb 0.00 in0.0 mm 0.00 in0.0 mm 0.00 in0.0 mm
01:10 PM 78.7°F25.9°C 63.9°F17.7°C 60% 5.3 mph NE8.5 kmh NE 11.0 mph17.7 kmh 30.00 in1015.9 mb 0.00 in0.0 mm 0.00 in0.0 mm 0.00 in0.0 mm
01:15 PM 78.9°F26.1°C 64.5°F18.1°C 61% 4.3 mph NE6.9 kmh NE 11.0 mph17.7 kmh 30.00 in1015.9 mb 0.00 in0.0 mm 0.00 in0.0 mm 0.00 in0.0 mm
01:20 PM 79.0°F26.1°C 66.0°F18.9°C 64% 1.5 mph ENE2.4 kmh ENE 11.0 mph17.7 kmh 30.00 in1015.9 mb 0.00 in0.0 mm 0.00 in0.0 mm 0.00 in0.0 mm
01:25 PM 79.4°F26.3°C 65.0°F18.3°C 61% 3.3 mph NNE5.3 kmh NNE 11.0 mph17.7 kmh 30.00 in1015.9 mb 0.00 in0.0 mm 0.00 in0.0 mm 0.00 in0.0 mm
01:30 PM 79.2°F26.2°C 63.4°F17.4°C 58% 6.0 mph NE9.7 kmh NE 11.0 mph17.7 kmh 30.00 in1015.9 mb 0.00 in0.0 mm 0.00 in0.0 mm 0.00 in0.0 mm
01:35 PM 79.5°F26.4°C 64.1°F17.8°C 59% 3.4 mph NE5.5 kmh NE 11.0 mph17.7 kmh 30.00 in1015.9 mb 0.00 in0.0 mm 0.00 in0.0 mm 0.00 in0.0 mm
01:40 PM 80.1°F26.7°C 65.0°F18.3°C 60% 2.6 mph N4.2 kmh N 11.0 mph17.7 kmh 30.00 in1015.9 mb 0.00 in0.0 mm 0.00 in0.0 mm 0.00 in0.0 mm
01:45 PM 80.4°F26.9°C 65.0°F18.3°C 59% 2.6 mph N4.2 kmh N 11.0 mph17.7 kmh 30.00 in1015.9 mb 0.00 in0.0 mm 0.00 in0.0 mm 0.00 in0.0 mm
01:50 PM 80.6°F27.0°C 65.2°F18.4°C 59% 2.4 mph NNE3.9 kmh NNE 9.0 mph14.5 kmh 29.99 in1015.6 mb 0.00 in0.0 mm 0.00 in0.0 mm 0.00 in0.0 mm
01:55 PM 80.6°F27.0°C 65.4°F18.6°C 60% 3.8 mph ENE6.1 kmh ENE 9.0 mph14.5 kmh 29.99 in1015.6 mb 0.00 in0.0 mm 0.00 in0.0 mm 0.00 in0.0 mm
02:00 PM 80.2°F26.8°C 65.3°F18.5°C 60% 2.8 mph ENE4.5 kmh ENE 8.0 mph12.9 kmh 29.99 in1015.6 mb 0.00 in0.0 mm 0.00 in0.0 mm 0.00 in0.0 mm
02:05 PM 80.3°F26.8°C 64.9°F18.3°C 59% 2.5 mph NE4.0 kmh NE 8.0 mph12.9 kmh 29.99 in1015.6 mb 0.00 in0.0 mm 0.00 in0.0 mm 0.00 in0.0 mm
02:10 PM 80.4°F26.9°C 65.5°F18.6°C 60% 2.7 mph NE4.3 kmh NE 12.0 mph19.3 kmh 29.99 in1015.6 mb 0.00 in0.0 mm 0.00 in0.0 mm 0.00 in0.0 mm
02:15 PM 80.4°F26.9°C 64.0°F17.8°C 57% 3.5 mph NNE5.6 kmh NNE 12.0 mph19.3 kmh 29.99 in1015.6 mb 0.00 in0.0 mm 0.00 in0.0 mm 0.00 in0.0 mm
02:20 PM 80.6°F27.0°C 64.2°F17.9°C 57% 2.2 mph NE3.5 kmh NE 12.0 mph19.3 kmh 29.98 in1015.2 mb 0.00 in0.0 mm 0.00 in0.0 mm 0.00 in0.0 mm
02:25 PM 81.1°F27.3°C 63.4°F17.4°C 55% 4.4 mph NE7.1 kmh NE 12.0 mph19.3 kmh 29.98 in1015.2 mb 0.00 in0.0 mm 0.00 in0.0 mm 0.00 in0.0 mm
02:30 PM 80.5°F26.9°C 63.0°F17.2°C 55% 5.5 mph NE8.9 kmh NE 9.0 mph14.5 kmh 29.98 in1015.2 mb 0.00 in0.0 mm 0.00 in0.0 mm 0.00 in0.0 mm
02:35 PM 80.7°F27.1°C 64.3°F17.9°C 57% 3.0 mph NE4.8 kmh NE 9.0 mph14.5 kmh 29.98 in1015.2 mb 0.00 in0.0 mm 0.00 in0.0 mm 0.00 in0.0 mm
02:40 PM 81.3°F27.4°C 64.6°F18.1°C 57% 3.6 mph N5.8 kmh N 11.0 mph17.7 kmh 29.98 in1015.2 mb 0.00 in0.0 mm 0.00 in0.0 mm 0.00 in0.0 mm
02:45 PM 81.4°F27.4°C 63.9°F17.7°C 55% 2.7 mph ENE4.3 kmh ENE 11.0 mph17.7 kmh 29.98 in1015.2 mb 0.00 in0.0 mm 0.00 in0.0 mm 0.00 in0.0 mm
02:50 PM 81.2°F27.3°C 64.7°F18.2°C 57% 2.0 mph NNW3.2 kmh NNW 11.0 mph17.7 kmh 29.97 in1014.9 mb 0.00 in0.0 mm 0.00 in0.0 mm 0.00 in0.0 mm
02:55 PM 81.5°F27.5°C 64.0°F17.8°C 55% 2.7 mph NNW4.3 kmh NNW 11.0 mph17.7 kmh 29.97 in1014.9 mb 0.00 in0.0 mm 0.00 in0.0 mm 0.00 in0.0 mm
03:00 PM 81.7°F27.6°C 64.0°F17.8°C 55% 2.4 mph NNW3.9 kmh NNW 8.0 mph12.9 kmh 29.97 in1014.9 mb 0.00 in0.0 mm 0.00 in0.0 mm 0.00 in0.0 mm
03:05 PM 81.8°F27.7°C 66.3°F19.1°C 59% 2.9 mph NE4.7 kmh NE 8.0 mph12.9 kmh 29.97 in1014.9 mb 0.00 in0.0 mm 0.00 in0.0 mm 0.00 in0.0 mm
03:10 PM 82.0°F27.8°C 65.0°F18.3°C 56% 4.2 mph NNE6.8 kmh NNE 10.0 mph16.1 kmh 29.97 in1014.9 mb 0.00 in0.0 mm 0.00 in0.0 mm 0.00 in0.0 mm
03:15 PM 81.6°F27.6°C 64.1°F17.8°C 55% 5.3 mph NE8.5 kmh NE 11.0 mph17.7 kmh 29.97 in1014.9 mb 0.00 in0.0 mm 0.00 in0.0 mm 0.00 in0.0 mm
03:20 PM 81.4°F27.4°C 64.7°F18.2°C 57% 3.4 mph NE5.5 kmh NE 12.0 mph19.3 kmh 29.97 in1014.9 mb 0.00 in0.0 mm 0.00 in0.0 mm 0.00 in0.0 mm
03:25 PM 81.9°F27.7°C 63.8°F17.7°C 54% 1.6 mph NNE2.6 kmh NNE 12.0 mph19.3 kmh 29.97 in1014.9 mb 0.00 in0.0 mm 0.00 in0.0 mm 0.00 in0.0 mm
03:30 PM 82.7°F28.2°C 64.6°F18.1°C 54% 2.3 mph N3.7 kmh N 12.0 mph19.3 kmh 29.97 in1014.9 mb 0.00 in0.0 mm 0.00 in0.0 mm 0.00 in0.0 mm
03:35 PM 82.8°F28.2°C 63.5°F17.5°C 52% 4.3 mph NNE6.9 kmh NNE 11.0 mph17.7 kmh 29.97 in1014.9 mb 0.00 in0.0 mm 0.00 in0.0 mm 0.00 in0.0 mm
03:40 PM 82.1°F27.8°C 61.6°F16.4°C 50% 5.9 mph NE9.5 kmh NE 11.0 mph17.7 kmh 29.97 in1014.9 mb 0.00 in0.0 mm 0.00 in0.0 mm 0.00 in0.0 mm
03:45 PM 82.2°F27.9°C 63.5°F17.5°C 53% 4.7 mph NE7.6 kmh NE 12.0 mph19.3 kmh 29.97 in1014.9 mb 0.00 in0.0 mm 0.00 in0.0 mm 0.00 in0.0 mm
03:50 PM 82.2°F27.9°C 63.0°F17.2°C 52% 2.8 mph N4.5 kmh N 13.0 mph20.9 kmh 29.97 in1014.9 mb 0.00 in0.0 mm 0.00 in0.0 mm 0.00 in0.0 mm
03:55 PM 82.8°F28.2°C 63.0°F17.2°C 51% 2.1 mph N3.4 kmh N 13.0 mph20.9 kmh 29.97 in1014.9 mb 0.00 in0.0 mm 0.00 in0.0 mm 0.00 in0.0 mm
04:00 PM 82.7°F28.2°C 63.3°F17.4°C 52% 2.3 mph NE3.7 kmh NE 13.0 mph20.9 kmh 29.97 in1014.9 mb 0.00 in0.0 mm 0.00 in0.0 mm 0.00 in0.0 mm
04:05 PM 83.0°F28.3°C 64.1°F17.8°C 53% 2.3 mph NNW3.7 kmh NNW 9.0 mph14.5 kmh 29.97 in1014.9 mb 0.00 in0.0 mm 0.00 in0.0 mm 0.00 in0.0 mm
04:10 PM 82.9°F28.3°C 61.9°F16.6°C 49% 5.1 mph NE8.2 kmh NE 9.0 mph14.5 kmh 29.97 in1014.9 mb 0.00 in0.0 mm 0.00 in0.0 mm 0.00 in0.0 mm
04:15 PM 82.9°F28.3°C 63.1°F17.3°C 51% 2.9 mph NW4.7 kmh NW 9.0 mph14.5 kmh 29.96 in1014.6 mb 0.00 in0.0 mm 0.00 in0.0 mm 0.00 in0.0 mm
04:20 PM 82.6°F28.1°C 61.6°F16.4°C 49% 7.2 mph NE11.6 kmh NE 11.0 mph17.7 kmh 29.96 in1014.6 mb 0.00 in0.0 mm 0.00 in0.0 mm 0.00 in0.0 mm
04:25 PM 82.4°F28.0°C 61.4°F16.3°C 49% 8.1 mph NE13.0 kmh NE 11.0 mph17.7 kmh 29.96 in1014.6 mb 0.00 in0.0 mm 0.00 in0.0 mm 0.00 in0.0 mm
04:30 PM 82.4°F28.0°C 62.0°F16.7°C 50% 3.1 mph NE5.0 kmh NE 11.0 mph17.7 kmh 29.96 in1014.6 mb 0.00 in0.0 mm 0.00 in0.0 mm 0.00 in0.0 mm
04:35 PM 82.6°F28.1°C 63.2°F17.3°C 52% 2.6 mph NNE4.2 kmh NNE 11.0 mph17.7 kmh 29.96 in1014.6 mb 0.00 in0.0 mm 0.00 in0.0 mm 0.00 in0.0 mm
04:40 PM 82.6°F28.1°C 61.0°F16.1°C 48% 2.2 mph NNE3.5 kmh NNE 11.0 mph17.7 kmh 29.96 in1014.6 mb 0.00 in0.0 mm 0.00 in0.0 mm 0.00 in0.0 mm
04:45 PM 82.7°F28.2°C 60.5°F15.8°C 47% 5.5 mph NE8.9 kmh NE 10.0 mph16.1 kmh 29.96 in1014.6 mb 0.00 in0.0 mm 0.00 in0.0 mm 0.00 in0.0 mm
04:50 PM 82.9°F28.3°C 61.9°F16.6°C 49% 1.6 mph NNW2.6 kmh NNW 10.0 mph16.1 kmh 29.96 in1014.6 mb 0.00 in0.0 mm 0.00 in0.0 mm 0.00 in0.0 mm
04:55 PM 83.3°F28.5°C 62.3°F16.8°C 49% 2.8 mph NE4.5 kmh NE 10.0 mph16.1 kmh 29.96 in1014.6 mb 0.00 in0.0 mm 0.00 in0.0 mm 0.00 in0.0 mm
05:00 PM 82.7°F28.2°C 61.6°F16.4°C 49% 4.1 mph ENE6.6 kmh ENE 13.0 mph20.9 kmh 29.96 in1014.6 mb 0.00 in0.0 mm 0.00 in0.0 mm 0.00 in0.0 mm
05:05 PM 82.0°F27.8°C 61.1°F16.2°C 49% 4.1 mph NE6.6 kmh NE 13.0 mph20.9 kmh 29.96 in1014.6 mb 0.00 in0.0 mm 0.00 in0.0 mm 0.00 in0.0 mm
05:10 PM 81.8°F27.7°C 61.5°F16.4°C 50% 5.8 mph NE9.3 kmh NE 13.0 mph20.9 kmh 29.96 in1014.6 mb 0.00 in0.0 mm 0.00 in0.0 mm 0.00 in0.0 mm
05:15 PM 82.2°F27.9°C 61.2°F16.2°C 49% 6.4 mph NE10.3 kmh NE 12.0 mph19.3 kmh 29.97 in1014.9 mb 0.00 in0.0 mm 0.00 in0.0 mm 0.00 in0.0 mm
05:20 PM 82.2°F27.9°C 61.2°F16.2°C 49% 7.0 mph NE11.3 kmh NE 12.0 mph19.3 kmh 29.97 in1014.9 mb 0.00 in0.0 mm 0.00 in0.0 mm 0.00 in0.0 mm
05:25 PM 81.9°F27.7°C 61.0°F16.1°C 49% 5.7 mph NE9.2 kmh NE 12.0 mph19.3 kmh 29.97 in1014.9 mb 0.00 in0.0 mm 0.00 in0.0 mm 0.00 in0.0 mm
05:30 PM 82.4°F28.0°C 60.8°F16.0°C 48% 1.5 mph NNE2.4 kmh NNE 12.0 mph19.3 kmh 29.97 in1014.9 mb 0.00 in0.0 mm 0.00 in0.0 mm 0.00 in0.0 mm
05:35 PM 82.6°F28.1°C 61.6°F16.4°C 49% 1.6 mph NE2.6 kmh NE 12.0 mph19.3 kmh 29.97 in1014.9 mb 0.00 in0.0 mm 0.00 in0.0 mm 0.00 in0.0 mm
05:40 PM 82.9°F28.3°C 61.9°F16.6°C 49% 3.3 mph NNE5.3 kmh NNE 12.0 mph19.3 kmh 29.97 in1014.9 mb 0.00 in0.0 mm 0.00 in0.0 mm 0.00 in0.0 mm
05:44 PM 82.8°F28.2°C 61.7°F16.5°C 49% 6.7 mph NE10.8 kmh NE 11.0 mph17.7 kmh 29.97 in1014.9 mb 0.00 in0.0 mm 0.00 in0.0 mm 0.00 in0.0 mm
05:49 PM 82.5°F28.1°C 60.9°F16.1°C 48% 5.3 mph NE8.5 kmh NE 11.0 mph17.7 kmh 29.97 in1014.9 mb 0.00 in0.0 mm 0.00 in0.0 mm 0.00 in0.0 mm
05:54 PM 82.5°F28.1°C 61.5°F16.4°C 49% 2.9 mph NE4.7 kmh NE 11.0 mph17.7 kmh 29.97 in1014.9 mb 0.00 in0.0 mm 0.00 in0.0 mm 0.00 in0.0 mm
05:59 PM 82.5°F28.1°C 60.9°F16.1°C 48% 5.1 mph NE8.2 kmh NE 11.0 mph17.7 kmh 29.97 in1014.9 mb 0.00 in0.0 mm 0.00 in0.0 mm 0.00 in0.0 mm
06:04 PM 82.7°F28.2°C 61.7°F16.5°C 49% 3.5 mph NE5.6 kmh NE 11.0 mph17.7 kmh 29.97 in1014.9 mb 0.00 in0.0 mm 0.00 in0.0 mm 0.00 in0.0 mm
06:09 PM 82.4°F28.0°C 62.0°F16.7°C 50% 2.7 mph E4.3 kmh E 9.0 mph14.5 kmh 29.97 in1014.9 mb 0.00 in0.0 mm 0.00 in0.0 mm 0.00 in0.0 mm
06:14 PM 82.5°F28.1°C 62.1°F16.7°C 50% 3.5 mph ENE5.6 kmh ENE 8.0 mph12.9 kmh 29.97 in1014.9 mb 0.00 in0.0 mm 0.00 in0.0 mm 0.00 in0.0 mm
06:19 PM 82.4°F28.0°C 61.4°F16.3°C 49% 3.1 mph NE5.0 kmh NE 8.0 mph12.9 kmh 29.97 in1014.9 mb 0.00 in0.0 mm 0.00 in0.0 mm 0.00 in0.0 mm
06:24 PM 82.4°F28.0°C 61.4°F16.3°C 49% 2.6 mph E4.2 kmh E 7.0 mph11.3 kmh 29.97 in1014.9 mb 0.00 in0.0 mm 0.00 in0.0 mm 0.00 in0.0 mm
06:29 PM 82.3°F27.9°C 61.9°F16.6°C 50% 2.7 mph NE4.3 kmh NE 7.0 mph11.3 kmh 29.97 in1014.9 mb 0.00 in0.0 mm 0.00 in0.0 mm 0.00 in0.0 mm
06:34 PM 82.1°F27.8°C 61.6°F16.4°C 50% 4.0 mph NE6.4 kmh NE 8.0 mph12.9 kmh 29.97 in1014.9 mb 0.00 in0.0 mm 0.00 in0.0 mm 0.00 in0.0 mm
06:39 PM 82.1°F27.8°C 62.9°F17.2°C 52% 3.2 mph NE5.1 kmh NE 8.0 mph12.9 kmh 29.97 in1014.9 mb 0.00 in0.0 mm 0.00 in0.0 mm 0.00 in0.0 mm
06:44 PM 82.3°F27.9°C 62.5°F16.9°C 51% 1.2 mph NE1.9 kmh NE 8.0 mph12.9 kmh 29.97 in1014.9 mb 0.00 in0.0 mm 0.00 in0.0 mm 0.00 in0.0 mm
06:49 PM 82.4°F28.0°C 63.2°F17.3°C 52% 2.5 mph NE4.0 kmh NE 8.0 mph12.9 kmh 29.97 in1014.9 mb 0.00 in0.0 mm 0.00 in0.0 mm 0.00 in0.0 mm
06:54 PM 82.1°F27.8°C 62.3°F16.8°C 51% 2.4 mph ENE3.9 kmh ENE 8.0 mph12.9 kmh 29.98 in1015.2 mb 0.00 in0.0 mm 0.00 in0.0 mm 0.00 in0.0 mm
06:59 PM 81.9°F27.7°C 62.0°F16.7°C 51% 2.6 mph E4.2 kmh E 8.0 mph12.9 kmh 29.97 in1014.9 mb 0.00 in0.0 mm 0.00 in0.0 mm 0.00 in0.0 mm
07:04 PM 81.8°F27.7°C 61.5°F16.4°C 50% 4.9 mph ENE7.9 kmh ENE 9.0 mph14.5 kmh 29.98 in1015.2 mb 0.00 in0.0 mm 0.00 in0.0 mm 0.00 in0.0 mm
07:09 PM 81.9°F27.7°C 61.6°F16.4°C 50% 2.7 mph ENE4.3 kmh ENE 9.0 mph14.5 kmh 29.98 in1015.2 mb 0.00 in0.0 mm 0.00 in0.0 mm 0.00 in0.0 mm
07:14 PM 81.9°F27.7°C 61.0°F16.1°C 49% 2.5 mph ENE4.0 kmh ENE 9.0 mph14.5 kmh 29.98 in1015.2 mb 0.00 in0.0 mm 0.00 in0.0 mm 0.00 in0.0 mm
07:19 PM 81.9°F27.7°C 60.4°F15.8°C 48% 1.7 mph NE2.7 kmh NE 9.0 mph14.5 kmh 29.98 in1015.2 mb 0.00 in0.0 mm 0.00 in0.0 mm 0.00 in0.0 mm
07:24 PM 81.8°F27.7°C 61.5°F16.4°C 50% 2.8 mph NE4.5 kmh NE 7.0 mph11.3 kmh 29.98 in1015.2 mb 0.00 in0.0 mm 0.00 in0.0 mm 0.00 in0.0 mm
07:29 PM 81.8°F27.7°C 61.3°F16.3°C 50% 1.3 mph NE2.1 kmh NE 6.0 mph9.7 kmh 29.98 in1015.2 mb 0.00 in0.0 mm 0.00 in0.0 mm 0.00 in0.0 mm
07:34 PM 81.8°F27.7°C 61.3°F16.3°C 50% 2.2 mph NE3.5 kmh NE 5.0 mph8.0 kmh 29.98 in1015.2 mb 0.00 in0.0 mm 0.00 in0.0 mm 0.00 in0.0 mm
07:39 PM 81.6°F27.6°C 61.3°F16.3°C 50% 3.1 mph NE5.0 kmh NE 6.0 mph9.7 kmh 29.98 in1015.2 mb 0.00 in0.0 mm 0.00 in0.0 mm 0.00 in0.0 mm
07:44 PM 81.5°F27.5°C 61.2°F16.2°C 50% 1.8 mph NE2.9 kmh NE 6.0 mph9.7 kmh 29.98 in1015.2 mb 0.00 in0.0 mm 0.00 in0.0 mm 0.00 in0.0 mm
07:49 PM 81.4°F27.4°C 61.1°F16.2°C 50% 2.5 mph NE4.0 kmh NE 6.0 mph9.7 kmh 29.99 in1015.6 mb 0.00 in0.0 mm 0.00 in0.0 mm 0.00 in0.0 mm
07:54 PM 81.3°F27.4°C 61.6°F16.4°C 51% 1.3 mph NE2.1 kmh NE 6.0 mph9.7 kmh 29.99 in1015.6 mb 0.00 in0.0 mm 0.00 in0.0 mm 0.00 in0.0 mm
07:59 PM 81.1°F27.3°C 61.4°F16.3°C 51% 2.5 mph NE4.0 kmh NE 5.0 mph8.0 kmh 29.99 in1015.6 mb 0.00 in0.0 mm 0.00 in0.0 mm 0.00 in0.0 mm
08:04 PM 81.0°F27.2°C 61.2°F16.2°C 51% 1.8 mph NE2.9 kmh NE 5.0 mph8.0 kmh 29.99 in1015.6 mb 0.00 in0.0 mm 0.00 in0.0 mm 0.00 in0.0 mm
08:09 PM 80.8°F27.1°C 61.7°F16.5°C 52% 1.8 mph NE2.9 kmh NE 5.0 mph8.0 kmh 29.99 in1015.6 mb 0.00 in0.0 mm 0.00 in0.0 mm 0.00 in0.0 mm
08:14 PM 80.6°F27.0°C 61.3°F16.3°C 52% 1.0 mph NE1.6 kmh NE 5.0 mph8.0 kmh 29.99 in1015.6 mb 0.00 in0.0 mm 0.00 in0.0 mm 0.00 in0.0 mm
08:19 PM 80.3°F26.8°C 62.3°F16.8°C 54% 1.3 mph NE2.1 kmh NE 5.0 mph8.0 kmh 29.99 in1015.6 mb 0.00 in0.0 mm 0.00 in0.0 mm 0.00 in0.0 mm
08:24 PM 79.9°F26.6°C 62.3°F16.8°C 55% 1.0 mph NE1.6 kmh NE 5.0 mph8.0 kmh 29.99 in1015.6 mb 0.00 in0.0 mm 0.00 in0.0 mm 0.00 in0.0 mm
08:29 PM 79.5°F26.4°C 62.1°F16.7°C 55% 1.6 mph NE2.6 kmh NE 4.0 mph6.4 kmh 29.99 in1015.6 mb 0.00 in0.0 mm 0.00 in0.0 mm 0.00 in0.0 mm
08:34 PM 79.2°F26.2°C 62.3°F16.8°C 56% 1.6 mph NE2.6 kmh NE 4.0 mph6.4 kmh 29.99 in1015.6 mb 0.00 in0.0 mm 0.00 in0.0 mm 0.00 in0.0 mm
08:39 PM 78.8°F26.0°C 61.8°F16.6°C 56% 1.4 mph ENE2.3 kmh ENE 4.0 mph6.4 kmh 29.99 in1015.6 mb 0.00 in0.0 mm 0.00 in0.0 mm 0.00 in0.0 mm
08:44 PM 78.6°F25.9°C 62.3°F16.8°C 57% Calm Calm 4.0 mph6.4 kmh 29.99 in1015.6 mb 0.00 in0.0 mm 0.00 in0.0 mm 0.00 in0.0 mm
08:49 PM 78.2°F25.7°C 62.4°F16.9°C 58% 1.0 mph ENE1.6 kmh ENE 3.0 mph4.8 kmh 29.99 in1015.6 mb 0.00 in0.0 mm 0.00 in0.0 mm 0.00 in0.0 mm
08:54 PM 77.8°F25.4°C 62.5°F16.9°C 59% 1.0 mph ENE1.6 kmh ENE 3.0 mph4.8 kmh 29.99 in1015.6 mb 0.00 in0.0 mm 0.00 in0.0 mm 0.00 in0.0 mm
08:59 PM 77.6°F25.3°C 62.1°F16.7°C 59% Calm Calm 3.0 mph4.8 kmh 30.00 in1015.9 mb 0.00 in0.0 mm 0.00 in0.0 mm 0.00 in0.0 mm
09:04 PM 77.3°F25.2°C 62.6°F17.0°C 60% Calm Calm 3.0 mph4.8 kmh 29.99 in1015.6 mb 0.00 in0.0 mm 0.00 in0.0 mm 0.00 in0.0 mm
09:09 PM 77.2°F25.1°C 62.9°F17.2°C 61% 1.0 mph E1.6 kmh E 1.0 mph1.6 kmh 29.99 in1015.6 mb 0.00 in0.0 mm 0.00 in0.0 mm 0.00 in0.0 mm
09:14 PM 77.2°F25.1°C 62.9°F17.2°C 61% 1.0 mph ENE1.6 kmh ENE 1.0 mph1.6 kmh 29.99 in1015.6 mb 0.00 in0.0 mm 0.00 in0.0 mm 0.00 in0.0 mm
09:19 PM 77.0°F25.0°C 62.7°F17.1°C 61% Calm Calm 1.0 mph1.6 kmh 29.99 in1015.6 mb 0.00 in0.0 mm 0.00 in0.0 mm 0.00 in0.0 mm
09:24 PM 76.9°F24.9°C 62.6°F17.0°C 61% Calm Calm 1.0 mph1.6 kmh 30.00 in1015.9 mb 0.00 in0.0 mm 0.00 in0.0 mm 0.00 in0.0 mm
09:29 PM 76.8°F24.9°C 62.3°F16.8°C 61% Calm Calm 1.0 mph1.6 kmh 29.99 in1015.6 mb 0.00 in0.0 mm 0.00 in0.0 mm 0.00 in0.0 mm
09:34 PM 76.4°F24.7°C 62.9°F17.2°C 63% Calm Calm -- 30.00 in1015.9 mb 0.00 in0.0 mm 0.00 in0.0 mm 0.00 in0.0 mm
09:39 PM 76.0°F24.4°C 63.2°F17.3°C 64% Calm Calm -- 30.00 in1015.9 mb 0.00 in0.0 mm 0.00 in0.0 mm 0.00 in0.0 mm
09:44 PM 75.8°F24.3°C 63.4°F17.4°C 65% Calm Calm -- 30.00 in1015.9 mb 0.00 in0.0 mm 0.00 in0.0 mm 0.00 in0.0 mm
09:49 PM 75.5°F24.2°C 63.1°F17.3°C 65% Calm Calm -- 30.00 in1015.9 mb 0.00 in0.0 mm 0.00 in0.0 mm 0.00 in0.0 mm
09:54 PM 75.2°F24.0°C 63.3°F17.4°C 66% Calm Calm -- 30.00 in1015.9 mb 0.00 in0.0 mm 0.00 in0.0 mm 0.00 in0.0 mm
09:59 PM 75.2°F24.0°C 62.8°F17.1°C 65% Calm Calm -- 30.00 in1015.9 mb 0.00 in0.0 mm 0.00 in0.0 mm 0.00 in0.0 mm
10:04 PM 75.5°F24.2°C 63.1°F17.3°C 65% Calm Calm -- 30.00 in1015.9 mb 0.00 in0.0 mm 0.00 in0.0 mm 0.00 in0.0 mm
10:09 PM 75.9°F24.4°C 63.1°F17.3°C 64% Calm Calm -- 30.00 in1015.9 mb 0.00 in0.0 mm 0.00 in0.0 mm 0.00 in0.0 mm
10:14 PM 76.0°F24.4°C 63.6°F17.6°C 65% Calm Calm -- 30.00 in1015.9 mb 0.00 in0.0 mm 0.00 in0.0 mm 0.00 in0.0 mm
10:19 PM 75.6°F24.2°C 63.4°F17.4°C 66% Calm Calm -- 30.00 in1015.9 mb 0.00 in0.0 mm 0.00 in0.0 mm 0.00 in0.0 mm
10:24 PM 75.4°F24.1°C 63.5°F17.5°C 66% Calm Calm -- 30.00 in1015.9 mb 0.00 in0.0 mm 0.00 in0.0 mm 0.00 in0.0 mm
10:29 PM 75.1°F23.9°C 62.7°F17.1°C 65% Calm Calm -- 30.00 in1015.9 mb 0.00 in0.0 mm 0.00 in0.0 mm 0.00 in0.0 mm
10:34 PM 74.9°F23.8°C 62.6°F17.0°C 65% Calm Calm -- 30.00 in1015.9 mb 0.00 in0.0 mm 0.00 in0.0 mm 0.00 in0.0 mm
10:39 PM 74.8°F23.8°C 62.5°F16.9°C 65% Calm Calm -- 30.00 in1015.9 mb 0.00 in0.0 mm 0.00 in0.0 mm 0.00 in0.0 mm
10:43 PM 75.3°F24.1°C 62.5°F16.9°C 64% Calm Calm -- 30.00 in1015.9 mb 0.00 in0.0 mm 0.00 in0.0 mm 0.00 in0.0 mm
10:48 PM 75.6°F24.2°C 62.8°F17.1°C 64% Calm Calm -- 30.01 in1016.3 mb 0.00 in0.0 mm 0.00 in0.0 mm 0.00 in0.0 mm
10:53 PM 75.6°F24.2°C 62.3°F16.8°C 63% Calm Calm -- 30.01 in1016.3 mb 0.00 in0.0 mm 0.00 in0.0 mm 0.00 in0.0 mm
10:58 PM 75.7°F24.3°C 62.4°F16.9°C 63% Calm Calm -- 30.01 in1016.3 mb 0.00 in0.0 mm 0.00 in0.0 mm 0.00 in0.0 mm
11:03 PM 75.6°F24.2°C 62.3°F16.8°C 63% Calm Calm -- 30.01 in1016.3 mb 0.00 in0.0 mm 0.00 in0.0 mm 0.00 in0.0 mm
11:08 PM 75.7°F24.3°C 62.7°F17.1°C 64% Calm Calm -- 30.01 in1016.3 mb 0.00 in0.0 mm 0.00 in0.0 mm 0.00 in0.0 mm
11:13 PM 75.4°F24.1°C 62.8°F17.1°C 65% Calm Calm -- 30.01 in1016.3 mb 0.00 in0.0 mm 0.00 in0.0 mm 0.00 in0.0 mm
11:18 PM 75.0°F23.9°C 62.7°F17.1°C 65% Calm Calm -- 30.01 in1016.3 mb 0.00 in0.0 mm 0.00 in0.0 mm 0.00 in0.0 mm
11:23 PM 74.5°F23.6°C 63.0°F17.2°C 67% Calm Calm -- 30.01 in1016.3 mb 0.00 in0.0 mm 0.00 in0.0 mm 0.00 in0.0 mm
11:28 PM 74.0°F23.3°C 62.8°F17.1°C 68% Calm Calm -- 30.02 in1016.6 mb 0.00 in0.0 mm 0.00 in0.0 mm 0.00 in0.0 mm
11:33 PM 73.7°F23.2°C 62.7°F17.1°C 68% Calm Calm -- 30.02 in1016.6 mb 0.00 in0.0 mm 0.00 in0.0 mm 0.00 in0.0 mm
11:38 PM 73.3°F22.9°C 62.7°F17.1°C 69% Calm Calm -- 30.02 in1016.6 mb 0.00 in0.0 mm 0.00 in0.0 mm 0.00 in0.0 mm
11:43 PM 73.2°F22.9°C 62.4°F16.9°C 69% Calm Calm -- 30.02 in1016.6 mb 0.00 in0.0 mm 0.00 in0.0 mm 0.00 in0.0 mm
11:48 PM 73.0°F22.8°C 62.4°F16.9°C 69% Calm Calm -- 30.02 in1016.6 mb 0.00 in0.0 mm 0.00 in0.0 mm 0.00 in0.0 mm
11:53 PM 72.9°F22.7°C 62.5°F16.9°C 70% Calm Calm -- 30.02 in1016.6 mb 0.00 in0.0 mm 0.00 in0.0 mm 0.00 in0.0 mm
11:58 PM 72.6°F22.6°C 63.2°F17.3°C 72% Calm Calm -- 30.02 in1016.6 mb 0.00 in0.0 mm 0.00 in0.0 mm 0.00 in0.0 mm